Time;durP1;ratioP1;P1;durP2;ratioP2;P2;SDS_P1;SDS_P2;PMS_P1;PMS_P2;Temp;Humidity;BMP_temperature;BMP_pressure;BME280_temperature;BME280_humidity;BME280_pressure;Samples;Min_cycle;Max_cycle;Signal;HPM_P1;HPM_P2
2023/09/23 00:01:39;;;;;;;3.03;2.28;;;13.60;99.90;;;;;;5030642;28;20051;-73
2023/09/23 00:04:05;;;;;;;4.22;2.13;;;13.50;99.90;;;;;;5017866;28;20037;-74
2023/09/23 00:06:31;;;;;;;2.78;1.90;;;13.50;99.90;;;;;;5038249;28;20520;-72
2023/09/23 00:08:56;;;;;;;3.88;1.88;;;13.40;99.90;;;;;;5031490;28;20065;-70
2023/09/23 00:11:22;;;;;;;4.32;1.95;;;13.40;99.90;;;;;;5030507;28;20518;-72
2023/09/23 00:13:48;;;;;;;4.85;2.10;;;13.40;99.90;;;;;;5038741;28;20041;-70
2023/09/23 00:16:16;;;;;;;3.45;2.08;;;13.40;99.90;;;;;;5029402;28;20104;-71
2023/09/23 00:18:45;;;;;;;8.00;2.00;;;13.30;99.90;;;;;;5030753;28;20041;-71
2023/09/23 00:21:14;;;;;;;5.57;1.98;;;13.30;99.90;;;;;;5034376;28;20049;-71
2023/09/23 00:23:40;;;;;;;4.25;1.70;;;13.30;99.90;;;;;;5031247;28;20436;-71
2023/09/23 00:26:10;;;;;;;4.10;1.83;;;13.30;99.90;;;;;;5032752;28;20041;-71
2023/09/23 00:28:36;;;;;;;4.15;1.80;;;13.30;99.90;;;;;;5022165;28;20136;-71
2023/09/23 00:31:14;;;;;;;3.30;1.95;;;13.30;99.90;;;;;;5035686;28;20498;-71
2023/09/23 00:33:41;;;;;;;4.22;1.88;;;13.30;99.90;;;;;;5019266;28;20333;-71
2023/09/23 00:36:08;;;;;;;2.15;1.45;;;13.20;99.90;;;;;;5041966;28;20038;-70
2023/09/23 00:38:35;;;;;;;3.22;1.20;;;13.30;99.90;;;;;;5038192;28;20044;-70
2023/09/23 00:41:01;;;;;;;1.35;1.20;;;13.20;99.90;;;;;;5038727;28;20099;-69
2023/09/23 00:43:26;;;;;;;2.78;1.05;;;13.20;99.90;;;;;;5036032;28;20041;-70
2023/09/23 00:45:54;;;;;;;2.70;1.30;;;13.10;99.90;;;;;;5034820;28;20839;-71
2023/09/23 00:48:21;;;;;;;1.65;1.00;;;13.10;99.90;;;;;;5032948;28;20040;-72
2023/09/23 00:50:48;;;;;;;4.88;1.20;;;13.00;99.90;;;;;;5032152;28;20073;-72
2023/09/23 00:53:15;;;;;;;3.13;1.27;;;13.00;99.90;;;;;;5032401;28;20038;-71
2023/09/23 00:55:43;;;;;;;2.33;1.10;;;13.00;99.90;;;;;;5018370;28;20095;-71
2023/09/23 00:58:15;;;;;;;2.65;1.30;;;13.00;99.90;;;;;;5035182;28;20571;-68
2023/09/23 01:00:43;;;;;;;2.78;1.48;;;13.00;99.90;;;;;;5032667;28;20041;-71
2023/09/23 01:03:12;;;;;;;4.28;1.70;;;13.00;99.90;;;;;;5033251;28;20069;-71
2023/09/23 01:05:39;;;;;;;4.20;1.58;;;13.00;99.90;;;;;;5036387;28;20029;-71
2023/09/23 01:08:42;;;;;;;2.28;1.55;;;13.00;99.90;;;;;;5013899;28;20037;-68
2023/09/23 01:10:57;;;;;;;4.20;1.95;;;13.00;99.90;;;;;;5016953;28;20053;-70
2023/09/23 01:13:24;;;;;;;4.15;2.03;;;13.00;99.90;;;;;;5033879;28;20036;-71
2023/09/23 01:15:51;;;;;;;5.82;2.33;;;13.00;99.90;;;;;;5023035;28;20400;-71
2023/09/23 01:18:17;;;;;;;4.95;2.72;;;13.10;99.90;;;;;;5032951;28;20053;-68
2023/09/23 01:20:48;;;;;;;6.93;3.22;;;13.10;99.90;;;;;;5032657;28;20432;-71
2023/09/23 01:23:14;;;;;;;5.30;3.38;;;13.30;99.90;;;;;;5013629;28;20029;-70
2023/09/23 01:25:39;;;;;;;6.47;3.85;;;13.10;99.90;;;;;;5031414;28;20034;-71
2023/09/23 01:28:11;;;;;;;5.10;3.67;;;13.10;99.90;;;;;;5032637;28;20037;-71
2023/09/23 01:30:39;;;;;;;6.23;4.00;;;13.00;99.90;;;;;;5025601;28;20508;-71
2023/09/23 01:33:07;;;;;;;7.20;4.50;;;13.00;99.90;;;;;;5027482;28;20049;-70
2023/09/23 01:35:33;;;;;;;6.63;4.78;;;13.00;99.90;;;;;;5031287;28;20044;-72
2023/09/23 01:37:59;;;;;;;6.25;4.90;;;13.00;99.90;;;;;;5032586;28;20042;-72
2023/09/23 01:40:29;;;;;;;8.00;4.80;;;13.00;99.90;;;;;;5015216;28;20041;-71
2023/09/23 01:42:55;;;;;;;7.55;5.22;;;13.00;99.90;;;;;;5033874;28;20383;-72
2023/09/23 01:45:22;;;;;;;8.00;4.60;;;13.00;99.90;;;;;;5031856;28;20528;-71
2023/09/23 01:47:49;;;;;;;7.60;4.30;;;13.00;99.90;;;;;;5034334;28;20117;-71
2023/09/23 01:50:17;;;;;;;7.07;4.70;;;13.00;99.90;;;;;;5039387;28;20049;-69
2023/09/23 01:52:45;;;;;;;8.10;5.22;;;13.00;99.90;;;;;;5036370;28;20550;-71
2023/09/23 01:55:12;;;;;;;8.07;5.15;;;13.00;99.90;;;;;;5025709;28;20116;-68
2023/09/23 01:57:41;;;;;;;11.65;5.22;;;13.00;99.90;;;;;;5020814;28;20056;-71
2023/09/23 02:00:08;;;;;;;6.20;5.03;;;13.00;99.90;;;;;;5028175;28;20325;-71
2023/09/23 02:02:33;;;;;;;6.20;5.13;;;12.90;99.90;;;;;;5029299;28;20472;-71
2023/09/23 02:04:59;;;;;;;8.07;5.07;;;12.90;99.90;;;;;;5033436;28;20041;-71
2023/09/23 02:07:26;;;;;;;7.30;4.70;;;12.90;99.90;;;;;;5039189;28;20029;-68
2023/09/23 02:09:52;;;;;;;7.18;4.97;;;12.90;99.90;;;;;;5032487;28;20041;-71
2023/09/23 02:12:18;;;;;;;8.10;4.57;;;12.80;99.90;;;;;;5037699;28;20069;-71
2023/09/23 02:14:44;;;;;;;7.35;5.10;;;12.80;99.90;;;;;;5033343;28;20508;-71
2023/09/23 02:17:09;;;;;;;6.53;4.72;;;12.70;99.90;;;;;;5032231;28;20072;-70
2023/09/23 02:19:35;;;;;;;7.85;4.50;;;12.70;99.90;;;;;;5031789;28;20041;-68
2023/09/23 02:22:06;;;;;;;6.90;5.00;;;12.70;99.90;;;;;;5013421;28;20041;-71
2023/09/23 02:24:34;;;;;;;6.60;4.93;;;12.60;99.90;;;;;;5025649;28;20400;-71
2023/09/23 02:27:00;;;;;;;8.23;4.85;;;12.60;99.90;;;;;;5034496;28;20033;-71
2023/09/23 02:29:25;;;;;;;8.02;4.63;;;12.60;99.90;;;;;;5031586;28;20095;-70
2023/09/23 02:31:51;;;;;;;7.13;4.80;;;12.60;99.90;;;;;;5032249;28;20037;-71
2023/09/23 02:34:18;;;;;;;6.55;4.22;;;12.50;99.90;;;;;;5024771;28;20110;-71
2023/09/23 02:36:47;;;;;;;7.82;3.85;;;12.50;99.90;;;;;;5023874;28;20055;-70
2023/09/23 02:39:17;;;;;;;;;;;12.50;99.90;;;;;;5033735;28;20124;-71
2023/09/23 02:41:46;;;;;;;7.65;4.25;;;12.50;99.90;;;;;;5031389;28;19928;-71
2023/09/23 02:44:18;;;;;;;7.13;4.28;;;12.40;99.90;;;;;;5033897;28;20053;-71
2023/09/23 02:46:48;;;;;;;6.10;4.07;;;12.40;99.90;;;;;;5031577;28;20033;-71
2023/09/23 02:49:14;;;;;;;7.10;4.40;;;12.40;99.90;;;;;;5020577;28;20083;-71
2023/09/23 02:51:42;;;;;;;5.95;4.05;;;12.40;99.90;;;;;;5031024;28;20057;-71
2023/09/23 02:54:09;;;;;;;7.35;4.93;;;12.40;99.90;;;;;;5030593;28;20164;-71
2023/09/23 02:56:35;;;;;;;7.38;4.30;;;12.40;99.90;;;;;;5030822;28;20037;-71
2023/09/23 02:59:11;;;;;;;6.95;4.47;;;12.40;99.90;;;;;;5030779;28;20045;-71
2023/09/23 03:01:37;;;;;;;10.32;4.78;;;12.40;99.90;;;;;;5012948;28;20053;-71
2023/09/23 03:04:16;;;;;;;7.55;4.68;;;12.30;99.90;;;;;;5030978;28;20119;-71
2023/09/23 03:06:43;;;;;;;8.90;4.85;;;12.30;99.90;;;;;;5030707;28;20038;-71
2023/09/23 03:09:10;;;;;;;8.30;4.90;;;12.30;99.90;;;;;;5030791;28;20033;-69
2023/09/23 03:11:47;;;;;;;7.75;5.10;;;12.20;99.90;;;;;;5003879;28;20042;-71
2023/09/23 03:14:17;;;;;;;6.97;5.00;;;12.20;99.90;;;;;;5028036;28;20041;-71
2023/09/23 03:16:44;;;;;;;7.18;4.90;;;12.20;99.90;;;;;;5020419;28;20064;-71
2023/09/23 03:19:10;;;;;;;7.45;5.38;;;12.10;99.90;;;;;;5015624;28;20056;-71
2023/09/23 03:21:41;;;;;;;7.72;5.18;;;12.10;99.90;;;;;;5013952;28;20049;-71
2023/09/23 03:24:06;;;;;;;8.18;5.85;;;12.10;99.90;;;;;;5030373;28;20079;-71
2023/09/23 03:26:32;;;;;;;6.88;5.43;;;12.10;99.90;;;;;;5035935;28;20038;-71
2023/09/23 03:28:58;;;;;;;9.73;5.63;;;12.00;99.90;;;;;;5030915;28;20046;-71
2023/09/23 03:31:23;;;;;;;8.52;5.50;;;12.00;99.90;;;;;;5014510;28;20553;-70
2023/09/23 03:33:49;;;;;;;9.60;6.30;;;12.00;99.90;;;;;;5033094;28;20037;-71
2023/09/23 03:36:15;;;;;;;9.60;5.85;;;12.00;99.90;;;;;;5030964;28;20044;-71
2023/09/23 03:38:42;;;;;;;9.02;5.43;;;12.00;99.90;;;;;;5030965;28;20038;-69
2023/09/23 03:41:11;;;;;;;9.38;5.68;;;11.90;99.90;;;;;;5031590;28;20033;-71
2023/09/23 03:43:38;;;;;;;8.98;6.28;;;11.90;99.90;;;;;;5032030;22;20057;-67
2023/09/23 03:46:11;;;;;;;10.05;6.65;;;11.90;99.90;;;;;;5007522;28;20033;-64
2023/09/23 03:48:37;;;;;;;8.23;5.90;;;11.90;99.90;;;;;;4991611;28;20736;-64
2023/09/23 03:51:05;;;;;;;9.02;6.25;;;11.80;99.90;;;;;;5009516;28;20124;-65
2023/09/23 03:53:30;;;;;;;10.15;6.50;;;11.80;99.90;;;;;;4991273;28;20072;-65
2023/09/23 03:56:00;;;;;;;10.77;6.93;;;11.80;99.90;;;;;;5009584;28;20034;-64
2023/09/23 03:58:27;;;;;;;10.75;7.50;;;11.80;99.90;;;;;;5009021;28;20034;-65
2023/09/23 04:00:56;;;;;;;11.43;7.70;;;11.70;99.90;;;;;;5007954;28;20049;-64
2023/09/23 04:03:22;;;;;;;11.25;7.05;;;11.70;99.90;;;;;;4991808;28;20040;-66
2023/09/23 04:05:57;;;;;;;11.82;6.93;;;11.70;99.90;;;;;;5008045;28;20034;-66
2023/09/23 04:08:23;;;;;;;11.45;8.02;;;11.70;99.90;;;;;;5006677;28;20385;-64
2023/09/23 04:10:49;;;;;;;11.23;7.43;;;11.70;99.90;;;;;;5009733;28;20503;-64
2023/09/23 04:13:16;;;;;;;12.60;8.20;;;11.70;99.90;;;;;;5007159;28;20108;-64
2023/09/23 04:15:42;;;;;;;14.18;8.60;;;11.70;99.90;;;;;;5002204;28;20048;-64
2023/09/23 04:18:09;;;;;;;12.40;8.57;;;11.70;99.90;;;;;;4987825;28;20041;-64
2023/09/23 04:20:35;;;;;;;13.75;8.95;;;11.70;99.90;;;;;;5009722;28;20411;-65
2023/09/23 04:23:02;;;;;;;12.43;9.25;;;11.70;99.90;;;;;;5009299;28;20069;-64
2023/09/23 04:25:28;;;;;;;13.88;8.82;;;11.70;99.90;;;;;;5007954;28;20033;-64
2023/09/23 04:27:54;;;;;;;12.70;8.90;;;11.60;99.90;;;;;;4991795;28;20038;-65
2023/09/23 04:30:21;;;;;;;13.25;9.25;;;11.60;99.90;;;;;;5008446;28;20074;-64
2023/09/23 04:32:47;;;;;;;13.27;9.60;;;11.60;99.90;;;;;;4991735;28;20042;-67
2023/09/23 04:35:14;;;;;;;14.73;10.48;;;11.60;99.90;;;;;;5009188;28;20504;-66
2023/09/23 04:37:39;;;;;;;14.77;9.73;;;11.60;99.90;;;;;;4991227;28;20104;-65
2023/09/23 04:40:10;;;;;;;14.48;10.50;;;11.50;99.90;;;;;;5009067;28;20492;-65
2023/09/23 04:42:40;;;;;;;15.18;11.00;;;11.50;99.90;;;;;;4991005;28;20153;-65
2023/09/23 04:45:06;;;;;;;18.00;11.88;;;11.50;99.90;;;;;;4996820;28;20066;-64
2023/09/23 04:47:32;;;;;;;18.08;12.40;;;11.50;99.90;;;;;;4990857;28;20109;-65
2023/09/23 04:49:59;;;;;;;18.48;12.73;;;11.50;99.90;;;;;;4991632;28;20113;-64
2023/09/23 04:52:28;;;;;;;18.65;12.55;;;11.40;99.90;;;;;;5009117;28;20501;-65
2023/09/23 04:54:54;;;;;;;17.83;12.25;;;11.40;99.90;;;;;;4991011;28;20381;-64
2023/09/23 04:57:24;;;;;;;18.67;12.73;;;11.40;99.90;;;;;;5009429;28;20092;-65
2023/09/23 04:59:54;;;;;;;18.77;12.48;;;11.40;99.90;;;;;;4987232;28;20081;-65
2023/09/23 05:02:20;;;;;;;17.67;13.13;;;11.40;99.90;;;;;;5009218;28;20370;-64
2023/09/23 05:04:46;;;;;;;21.85;13.93;;;11.40;99.90;;;;;;5005956;28;20031;-64
2023/09/23 05:07:15;;;;;;;19.27;12.82;;;11.50;99.90;;;;;;4988882;28;20381;-65
2023/09/23 05:09:41;;;;;;;18.70;13.27;;;11.50;99.90;;;;;;5012729;28;20045;-64
2023/09/23 05:12:10;;;;;;;20.38;13.38;;;11.40;99.90;;;;;;4978639;28;20034;-64
2023/09/23 05:14:36;;;;;;;19.95;13.45;;;11.50;99.90;;;;;;5012260;28;20076;-68
2023/09/23 05:17:05;;;;;;;23.42;15.00;;;11.50;99.90;;;;;;4986543;28;20073;-64
2023/09/23 05:19:33;;;;;;;23.60;15.10;;;11.50;99.90;;;;;;4993770;28;20365;-64
2023/09/23 05:22:00;;;;;;;22.63;15.82;;;11.50;99.90;;;;;;5011352;28;20104;-64
2023/09/23 05:24:26;;;;;;;23.33;16.05;;;11.50;99.90;;;;;;4994471;28;20045;-64
2023/09/23 05:26:55;;;;;;;25.77;16.88;;;11.50;99.90;;;;;;5008117;28;20112;-66
2023/09/23 05:29:22;;;;;;;23.95;16.33;;;11.50;99.90;;;;;;5011290;28;20400;-64
2023/09/23 05:31:48;;;;;;;24.63;15.40;;;11.50;99.90;;;;;;5012331;28;20263;-64
2023/09/23 05:34:15;;;;;;;28.25;17.77;;;11.50;99.90;;;;;;4987497;28;20038;-66
2023/09/23 05:36:41;;;;;;;24.38;17.45;;;11.50;99.90;;;;;;5003766;28;20487;-65
2023/09/23 05:39:07;;;;;;;27.67;19.13;;;11.50;99.90;;;;;;4989765;28;20399;-65
2023/09/23 05:41:32;;;;;;;27.52;18.67;;;11.50;99.90;;;;;;5010148;28;20037;-67
2023/09/23 05:43:59;;;;;;;30.55;19.25;;;11.50;99.90;;;;;;5011424;28;20053;-64
2023/09/23 05:46:27;;;;;;;29.40;19.38;;;11.50;99.90;;;;;;4996762;28;20092;-65
2023/09/23 05:48:53;;;;;;;31.13;20.35;;;11.50;99.90;;;;;;4987671;28;20038;-64
2023/09/23 05:51:19;;;;;;;31.88;21.38;;;11.50;99.90;;;;;;5011847;28;20034;-67
2023/09/23 05:53:45;;;;;;;33.17;22.23;;;11.50;99.90;;;;;;5010547;28;20120;-66
2023/09/23 05:56:11;;;;;;;33.63;21.45;;;11.40;99.90;;;;;;5008913;28;20121;-66
2023/09/23 05:58:37;;;;;;;33.53;21.58;;;11.40;99.90;;;;;;4993781;28;21149;-64
2023/09/23 06:01:02;;;;;;;38.65;23.33;;;11.50;99.90;;;;;;4990634;28;20042;-65
2023/09/23 06:03:28;;;;;;;38.10;23.00;;;11.50;99.90;;;;;;4990016;28;20129;-64
2023/09/23 06:05:54;;;;;;;33.17;22.23;;;11.50;99.90;;;;;;4993805;28;20034;-64
2023/09/23 06:08:20;;;;;;;36.75;23.70;;;11.50;99.90;;;;;;5005468;28;20053;-65
2023/09/23 06:10:46;;;;;;;34.88;23.17;;;11.50;99.90;;;;;;4986466;28;20038;-65
2023/09/23 06:13:12;;;;;;;35.40;23.77;;;11.60;99.90;;;;;;5006828;28;20038;-65
2023/09/23 06:15:38;;;;;;;36.20;24.25;;;11.60;99.90;;;;;;5002770;28;20433;-65
2023/09/23 06:18:03;;;;;;;35.85;22.88;;;11.60;99.90;;;;;;4992879;28;20100;-67
2023/09/23 06:20:29;;;;;;;36.95;23.75;;;11.60;99.90;;;;;;4986797;28;20185;-64
2023/09/23 06:22:55;;;;;;;34.50;23.63;;;11.70;99.90;;;;;;5010694;28;20034;-64
2023/09/23 06:25:20;;;;;;;37.47;23.60;;;11.40;99.90;;;;;;4993084;28;20524;-66
2023/09/23 06:27:46;;;;;;;35.85;23.40;;;11.80;99.90;;;;;;5001814;28;20034;-64
2023/09/23 06:30:15;;;;;;;38.88;24.23;;;11.80;99.90;;;;;;5000939;28;20034;-68
2023/09/23 06:32:41;;;;;;;40.13;24.15;;;11.90;99.90;;;;;;4993597;28;20048;-64
2023/09/23 06:35:10;;;;;;;36.30;23.83;;;11.90;99.90;;;;;;5006257;28;20034;-64
2023/09/23 06:37:37;;;;;;;38.03;23.00;;;11.90;99.90;;;;;;4992042;28;20117;-65
2023/09/23 06:40:03;;;;;;;36.45;23.98;;;12.00;99.90;;;;;;5008530;28;20030;-64
2023/09/23 06:42:29;;;;;;;35.97;24.00;;;12.10;99.90;;;;;;5004741;28;20049;-65
2023/09/23 06:44:54;;;;;;;35.08;23.73;;;12.10;99.90;;;;;;5008922;28;20042;-64
2023/09/23 06:47:20;;;;;;;31.88;22.40;;;12.20;99.90;;;;;;5009728;28;20045;-66
2023/09/23 06:49:46;;;;;;;35.72;22.98;;;12.30;99.90;;;;;;4993556;28;20396;-64
2023/09/23 06:52:12;;;;;;;36.90;24.13;;;12.40;99.90;;;;;;5011181;28;20084;-65
2023/09/23 06:54:38;;;;;;;35.20;24.35;;;12.50;99.90;;;;;;5010835;28;20096;-64
2023/09/23 06:57:03;;;;;;;33.95;22.73;;;12.60;99.90;;;;;;5010180;28;20088;-65
2023/09/23 06:59:29;;;;;;;35.30;24.08;;;12.60;99.90;;;;;;4990922;28;20066;-65
2023/09/23 07:01:55;;;;;;;41.35;23.70;;;12.70;99.90;;;;;;5010461;28;20045;-64
2023/09/23 07:04:20;;;;;;;31.88;22.23;;;12.70;99.90;;;;;;5010438;28;20041;-67
2023/09/23 07:06:46;;;;;;;33.67;21.80;;;12.70;99.90;;;;;;4984671;28;20117;-64
2023/09/23 07:09:12;;;;;;;34.45;22.48;;;12.70;99.90;;;;;;4976852;28;20034;-64
2023/09/23 07:11:38;;;;;;;29.95;22.20;;;12.70;99.90;;;;;;4992319;28;20111;-65
2023/09/23 07:14:05;;;;;;;34.97;21.70;;;12.70;99.90;;;;;;4989333;28;20396;-65
2023/09/23 07:16:33;;;;;;;31.15;21.27;;;12.80;99.90;;;;;;5008360;28;20081;-65
2023/09/23 07:18:59;;;;;;;30.40;21.17;;;12.80;99.90;;;;;;5010116;28;20302;-65
2023/09/23 07:21:25;;;;;;;27.85;20.70;;;12.80;99.90;;;;;;5010088;28;20046;-68
2023/09/23 07:23:50;;;;;;;30.30;20.90;;;12.80;99.90;;;;;;4993068;28;20134;-65
2023/09/23 07:26:22;;;;;;;28.45;20.58;;;12.80;99.90;;;;;;4992457;28;20042;-65
2023/09/23 07:28:51;;;;;;;25.83;18.95;;;12.90;99.90;;;;;;5006261;28;20041;-65
2023/09/23 07:31:17;;;;;;;27.40;20.70;;;12.90;99.90;;;;;;4991666;28;20046;-66
2023/09/23 07:33:44;;;;;;;28.55;19.85;;;12.90;99.90;;;;;;5008903;28;20073;-66
2023/09/23 07:36:13;;;;;;;27.52;19.50;;;12.90;99.90;;;;;;4991628;28;20038;-66
2023/09/23 07:38:39;;;;;;;32.30;19.58;;;13.00;99.90;;;;;;5007522;28;20492;-64
2023/09/23 07:41:06;;;;;;;27.83;20.20;;;13.00;99.90;;;;;;5005472;28;20045;-65
2023/09/23 07:43:32;;;;;;;30.98;19.75;;;13.00;99.90;;;;;;5000261;28;20088;-67
2023/09/23 07:45:58;;;;;;;26.50;19.52;;;13.00;99.90;;;;;;5002649;28;20034;-68
2023/09/23 07:48:23;;;;;;;27.30;20.00;;;13.00;99.90;;;;;;4984612;28;20519;-65
2023/09/23 07:50:49;;;;;;;28.63;19.60;;;12.90;99.90;;;;;;5003849;28;20120;-65
2023/09/23 07:53:15;;;;;;;26.25;19.27;;;13.00;99.90;;;;;;4985367;28;20037;-65
2023/09/23 07:55:41;;;;;;;28.25;18.35;;;13.00;99.90;;;;;;5001065;28;20041;-66
2023/09/23 07:58:07;;;;;;;28.00;18.13;;;13.10;99.90;;;;;;4981540;28;20129;-65
2023/09/23 08:00:32;;;;;;;26.58;18.30;;;13.20;99.90;;;;;;4990031;28;20117;-66
2023/09/23 08:02:58;;;;;;;27.88;18.35;;;13.20;99.90;;;;;;5006538;28;20034;-67
2023/09/23 08:05:24;;;;;;;23.70;17.55;;;13.20;99.90;;;;;;4991766;28;20675;-66
2023/09/23 08:07:53;;;;;;;26.15;18.27;;;13.30;99.90;;;;;;4986179;28;20038;-65
2023/09/23 08:10:19;;;;;;;29.05;17.98;;;13.30;99.90;;;;;;4992093;28;20045;-66
2023/09/23 08:12:45;;;;;;;25.63;18.05;;;13.30;99.90;;;;;;4994896;28;20042;-66
2023/09/23 08:15:11;;;;;;;33.60;18.15;;;13.40;99.90;;;;;;5009316;28;20038;-68
2023/09/23 08:17:39;;;;;;;25.02;17.27;;;13.40;99.90;;;;;;4990359;28;20049;-67
2023/09/23 08:20:20;;;;;;;24.70;17.67;;;13.50;99.90;;;;;;5009595;28;20054;-68
2023/09/23 08:22:46;;;;;;;25.38;17.10;;;13.50;99.90;;;;;;4987635;28;20048;-66
2023/09/23 08:25:13;;;;;;;25.30;16.90;;;13.60;99.90;;;;;;4973689;28;20049;-66
2023/09/23 08:27:40;;;;;;;24.85;16.23;;;13.60;99.90;;;;;;5007180;28;20109;-66
2023/09/23 08:30:07;;;;;;;23.35;16.38;;;13.70;99.90;;;;;;5007305;28;20033;-66
2023/09/23 08:32:33;;;;;;;20.90;15.13;;;13.70;99.90;;;;;;5008599;28;20030;-66
2023/09/23 08:34:59;;;;;;;18.45;15.20;;;13.80;99.90;;;;;;4987763;28;20037;-66
2023/09/23 08:37:24;;;;;;;20.48;15.60;;;13.80;99.90;;;;;;5006642;28;20120;-66
2023/09/23 08:39:50;;;;;;;23.40;15.88;;;13.90;99.90;;;;;;4986564;28;20033;-67
2023/09/23 08:42:22;;;;;;;20.27;15.10;;;14.00;99.90;;;;;;5008363;28;20376;-66
2023/09/23 08:44:49;;;;;;;17.23;14.35;;;14.10;99.90;;;;;;4989628;28;20095;-67
2023/09/23 08:47:18;;;;;;;18.08;14.30;;;14.10;99.90;;;;;;5005911;28;20436;-66
2023/09/23 08:49:47;;;;;;;19.42;13.98;;;14.10;99.90;;;;;;5002152;28;20404;-67
2023/09/23 08:52:13;;;;;;;19.83;14.32;;;14.10;99.90;;;;;;5009738;28;20042;-66
2023/09/23 08:54:39;;;;;;;23.55;14.52;;;14.10;99.90;;;;;;5010155;28;20489;-66
2023/09/23 08:57:05;;;;;;;18.02;14.63;;;14.10;99.90;;;;;;5012633;28;20109;-66
2023/09/23 08:59:31;;;;;;;17.45;13.07;;;14.10;99.90;;;;;;5008187;28;20042;-66
2023/09/23 09:01:57;;;;;;;19.00;13.32;;;14.10;99.90;;;;;;5009456;28;20121;-66
2023/09/23 09:04:24;;;;;;;20.45;14.20;;;14.20;99.90;;;;;;5004266;28;20030;-67
2023/09/23 09:06:54;;;;;;;15.25;12.45;;;14.20;99.90;;;;;;5011070;28;20231;-67
2023/09/23 09:09:19;;;;;;;19.58;12.52;;;14.30;99.90;;;;;;5005264;28;20030;-67
2023/09/23 09:11:46;;;;;;;17.20;12.45;;;14.30;99.90;;;;;;4991836;28;20357;-67
2023/09/23 09:14:12;;;;;;;17.25;12.73;;;14.40;99.90;;;;;;5011229;28;20410;-69
2023/09/23 09:16:38;;;;;;;13.90;11.35;;;14.50;99.90;;;;;;4994554;28;20101;-66
2023/09/23 09:19:05;;;;;;;15.60;11.25;;;14.50;99.90;;;;;;4995276;28;20096;-68
2023/09/23 09:21:32;;;;;;;15.18;11.77;;;14.60;99.90;;;;;;4991929;28;20745;-67
2023/09/23 09:23:58;;;;;;;15.27;11.13;;;14.60;99.90;;;;;;5006595;28;20030;-67
2023/09/23 09:26:24;;;;;;;12.93;10.43;;;14.70;99.90;;;;;;5010334;28;20034;-67
2023/09/23 09:28:50;;;;;;;16.30;11.00;;;14.80;99.90;;;;;;4992765;28;20084;-67
2023/09/23 09:31:17;;;;;;;15.80;10.50;;;15.00;99.90;;;;;;5006434;28;20052;-67
2023/09/23 09:33:47;;;;;;;13.73;9.35;;;15.10;99.90;;;;;;5004469;28;20484;-67
2023/09/23 09:36:19;;;;;;;13.30;9.20;;;15.20;99.90;;;;;;5009450;28;20095;-67
2023/09/23 09:38:47;;;;;;;13.15;8.50;;;15.10;99.90;;;;;;4987599;28;20050;-67
2023/09/23 09:41:19;;;;;;;14.82;8.30;;;15.10;99.90;;;;;;5012532;28;20061;-67
2023/09/23 09:43:45;;;;;;;15.60;8.80;;;15.10;99.90;;;;;;5028075;23;20150;-77
2023/09/23 09:46:13;;;;;;;11.98;7.47;;;15.10;99.90;;;;;;5000054;28;20068;-77
2023/09/23 09:48:41;;;;;;;10.52;8.15;;;15.10;99.90;;;;;;5032190;28;20045;-77
2023/09/23 09:51:08;;;;;;;9.13;7.03;;;15.10;99.90;;;;;;5002403;28;20501;-77
2023/09/23 09:53:39;;;;;;;15.50;6.72;;;15.10;99.90;;;;;;5013261;28;20055;-77
2023/09/23 09:56:09;;;;;;;8.73;6.55;;;15.20;99.90;;;;;;5023022;28;20099;-78
2023/09/23 09:58:40;;;;;;;9.68;6.28;;;15.20;99.90;;;;;;4995432;28;20038;-78
2023/09/23 10:01:12;;;;;;;9.98;6.22;;;15.20;99.90;;;;;;5009436;28;20045;-77
2023/09/23 10:03:45;;;;;;;9.55;5.38;;;15.30;99.90;;;;;;4994863;28;20033;-77
2023/09/23 10:06:22;;;;;;;9.30;5.13;;;15.40;99.90;;;;;;5012927;28;20069;-78
2023/09/23 10:08:51;;;;;;;7.75;5.30;;;15.60;99.90;;;;;;5028697;28;20041;-79
2023/09/23 10:11:17;;;;;;;8.10;4.70;;;16.40;99.90;;;;;;4993904;28;20048;-78
2023/09/23 10:13:42;;;;;;;10.90;4.88;;;16.20;99.90;;;;;;5013031;28;20481;-77
2023/09/23 10:16:13;;;;;;;10.43;4.50;;;16.30;99.90;;;;;;4998950;28;20796;-78
2023/09/23 10:18:43;;;;;;;5.80;3.97;;;16.50;99.90;;;;;;4997286;28;20440;-77
2023/09/23 10:21:22;;;;;;;9.13;3.85;;;16.60;99.90;;;;;;5010444;28;20132;-78
2023/09/23 10:23:52;;;;;;;6.55;3.20;;;16.60;99.90;;;;;;4993206;28;20108;-78
2023/09/23 10:26:23;;;;;;;8.70;3.67;;;16.70;99.90;;;;;;5032269;28;20042;-78
2023/09/23 10:28:55;;;;;;;;;;;16.90;99.90;;;;;;4999243;28;20113;-78
2023/09/23 10:31:26;;;;;;;10.68;3.45;;;17.00;99.90;;;;;;5000167;28;20004;-78
2023/09/23 10:33:53;;;;;;;6.88;3.67;;;16.90;99.90;;;;;;5032609;28;20116;-78
2023/09/23 10:36:20;;;;;;;8.00;3.72;;;16.90;99.90;;;;;;5013626;28;20516;-79
2023/09/23 10:38:50;;;;;;;5.75;3.25;;;16.90;99.90;;;;;;5007202;28;20048;-78
2023/09/23 10:41:16;;;;;;;22.52;6.03;;;16.80;99.90;;;;;;5014957;28;20117;-78
2023/09/23 10:43:42;;;;;;;10.73;3.92;;;16.90;99.90;;;;;;4994824;28;20037;-78
2023/09/23 10:46:07;;;;;;;6.97;3.75;;;16.60;99.90;;;;;;5015279;28;20047;-78
2023/09/23 10:48:34;;;;;;;8.10;3.67;;;17.10;99.90;;;;;;5030997;28;20323;-78
2023/09/23 10:51:00;;;;;;;8.32;3.90;;;16.40;99.90;;;;;;5012420;28;20445;-78
2023/09/23 10:53:29;;;;;;;9.88;3.30;;;16.30;99.90;;;;;;4993911;28;20037;-78
2023/09/23 10:55:55;;;;;;;6.68;3.53;;;16.40;99.90;;;;;;4992702;28;20046;-79
2023/09/23 10:58:21;;;;;;;5.85;3.40;;;16.60;99.90;;;;;;5012843;28;20517;-78
2023/09/23 11:00:48;;;;;;;5.28;3.47;;;16.50;99.90;;;;;;5013292;28;20512;-78
2023/09/23 11:03:19;;;;;;;7.60;3.35;;;16.60;99.90;;;;;;4998179;28;20076;-78
2023/09/23 11:05:48;;;;;;;6.88;3.10;;;16.70;99.90;;;;;;4995044;28;20073;-78
2023/09/23 11:08:18;;;;;;;5.00;2.75;;;16.80;99.90;;;;;;5017431;28;20073;-78
2023/09/23 11:10:48;;;;;;;9.07;3.20;;;16.90;99.90;;;;;;5008272;28;20113;-78
2023/09/23 11:13:15;;;;;;;9.48;3.38;;;17.10;99.90;;;;;;5017826;28;20033;-79
2023/09/23 11:15:45;;;;;;;6.68;3.20;;;17.20;99.90;;;;;;4999110;28;20049;-79
2023/09/23 11:18:16;;;;;;;9.68;3.67;;;17.40;99.90;;;;;;4994273;28;20041;-78
2023/09/23 11:20:44;;;;;;;10.95;3.65;;;17.50;99.90;;;;;;5030373;28;20045;-79
2023/09/23 11:23:12;;;;;;;10.82;3.20;;;17.70;99.90;;;;;;5008471;28;20521;-78
2023/09/23 11:25:41;;;;;;;6.63;3.35;;;17.50;99.90;;;;;;5003809;28;20048;-78
2023/09/23 11:28:27;;;;;;;5.20;3.03;;;17.50;99.90;;;;;;5011087;28;20041;-79
2023/09/23 11:30:54;;;;;;;6.97;2.72;;;17.60;99.90;;;;;;5013656;28;20038;-78
2023/09/23 11:33:22;;;;;;;7.38;3.03;;;18.00;99.90;;;;;;5014948;28;20041;-79
2023/09/23 11:35:48;;;;;;;8.75;3.05;;;17.70;99.90;;;;;;5015599;28;20038;-76
2023/09/23 11:38:14;;;;;;;4.18;2.60;;;17.70;99.90;;;;;;4997723;28;20037;-79
2023/09/23 11:40:52;;;;;;;7.18;2.80;;;17.90;99.90;;;;;;4997639;28;20090;-80
2023/09/23 11:43:20;;;;;;;7.70;2.85;;;17.50;99.90;;;;;;4990060;28;20038;-80
2023/09/23 11:45:48;;;;;;;3.67;2.38;;;17.80;99.90;;;;;;4995282;28;20042;-79
2023/09/23 11:48:20;;;;;;;4.93;2.60;;;17.50;99.90;;;;;;4993823;28;20488;-80
2023/09/23 11:50:49;;;;;;;4.90;2.33;;;17.40;99.90;;;;;;4998641;28;20063;-80
2023/09/23 11:53:15;;;;;;;5.53;2.33;;;17.50;99.90;;;;;;5009508;28;20073;-79
2023/09/23 11:55:42;;;;;;;5.32;2.10;;;17.60;99.90;;;;;;5013616;28;20073;-79
2023/09/23 11:58:08;;;;;;;5.32;2.47;;;17.60;99.90;;;;;;4996494;28;20041;-79
2023/09/23 12:00:34;;;;;;;5.95;2.00;;;17.50;99.90;;;;;;5000884;28;20087;-79
2023/09/23 12:03:03;;;;;;;6.85;2.10;;;17.60;99.90;;;;;;5007363;28;20405;-79
2023/09/23 12:05:29;;;;;;;4.68;1.70;;;17.40;99.90;;;;;;5030658;28;20101;-78
2023/09/23 12:07:58;;;;;;;8.77;2.13;;;17.30;99.90;;;;;;5001847;28;20044;-79
2023/09/23 12:10:25;;;;;;;3.80;2.00;;;17.50;99.90;;;;;;5010892;28;20079;-79
2023/09/23 12:12:53;;;;;;;4.80;1.80;;;17.60;99.90;;;;;;5014380;28;20037;-79
2023/09/23 12:15:22;;;;;;;4.30;1.85;;;18.10;99.90;;;;;;5028403;28;20045;-79
2023/09/23 12:17:47;;;;;;;3.75;1.70;;;17.90;99.90;;;;;;5002031;28;20139;-78
2023/09/23 12:20:16;;;;;;;5.05;2.00;;;17.90;99.90;;;;;;5019765;28;20053;-78
2023/09/23 12:22:41;;;;;;;4.47;1.77;;;17.80;99.90;;;;;;5020897;28;20033;-78
2023/09/23 12:25:07;;;;;;;3.85;1.90;;;17.70;99.90;;;;;;5016353;28;20060;-79
2023/09/23 12:27:37;;;;;;;5.20;1.58;;;17.70;99.90;;;;;;5002730;28;20033;-80
2023/09/23 12:30:03;;;;;;;6.05;1.80;;;17.70;99.90;;;;;;5004064;28;20092;-78
2023/09/23 12:32:30;;;;;;;5.20;1.80;;;17.90;99.90;;;;;;5003456;28;20037;-78
2023/09/23 12:35:01;;;;;;;6.45;1.80;;;18.10;99.90;;;;;;5028288;28;20532;-79
2023/09/23 12:37:29;;;;;;;4.05;1.70;;;18.20;99.90;;;;;;4992889;28;20512;-79
2023/09/23 12:39:55;;;;;;;4.35;2.03;;;18.20;99.90;;;;;;5021060;28;20065;-80